Time;durP1;ratioP1;P1;durP2;ratioP2;P2;SDS_P1;SDS_P2;PMS_P1;PMS_P2;Temp;Humidity;BMP_temperature;BMP_pressure;BME280_temperature;BME280_humidity;BME280_pressure;Samples;Min_cycle;Max_cycle;Signal;HPM_P1;HPM_P2
2021/10/20 00:01:57;;;;;;;19.40;4.80;;;;;;;12.91;100.00;99586.00;4804051;29;20046;-82
2021/10/20 00:04:22;;;;;;;15.18;4.50;;;;;;;12.82;100.00;99571.25;4782595;29;20034;-82
2021/10/20 00:06:48;;;;;;;24.67;5.15;;;;;;;12.86;100.00;99575.09;4805766;29;20073;-81
2021/10/20 00:09:13;;;;;;;18.25;4.25;;;;;;;12.83;100.00;99562.09;4807006;29;20062;-82
2021/10/20 00:11:39;;;;;;;16.85;4.15;;;;;;;12.98;100.00;99582.31;4793187;29;20094;-81
2021/10/20 00:14:04;;;;;;;17.70;4.45;;;;;;;12.97;100.00;99581.50;4822017;29;20134;-81
2021/10/20 00:16:30;;;;;;;20.50;4.45;;;;;;;12.89;100.00;99558.41;4819924;29;20052;-82
2021/10/20 00:18:56;;;;;;;18.08;4.40;;;;;;;12.87;100.00;99549.75;4829079;29;20030;-83
2021/10/20 00:21:27;;;;;;;21.27;4.57;;;;;;;13.00;100.00;99556.69;4828590;29;20060;-82
2021/10/20 00:23:54;;;;;;;16.38;4.63;;;;;;;12.92;100.00;99552.53;4806213;29;20015;-82
2021/10/20 00:26:20;;;;;;;24.02;5.07;;;;;;;13.06;100.00;99560.31;4829121;29;20037;-81
2021/10/20 00:28:45;;;;;;;20.17;5.60;;;;;;;13.07;100.00;99562.75;4793357;29;20059;-82
2021/10/20 00:31:11;;;;;;;19.83;5.45;;;;;;;13.11;100.00;99563.06;4787673;30;20045;-82
2021/10/20 00:33:36;;;;;;;25.13;6.43;;;;;;;13.12;100.00;99560.16;4770247;30;20039;-82
2021/10/20 00:36:02;;;;;;;21.77;6.38;;;;;;;13.14;100.00;99563.44;4787527;30;20054;-81
2021/10/20 00:38:28;;;;;;;25.83;6.55;;;;;;;13.18;100.00;99550.25;4811862;29;20152;-82
2021/10/20 00:40:54;;;;;;;30.88;7.30;;;;;;;13.16;100.00;99546.97;4804908;29;20462;-82
2021/10/20 00:43:23;;;;;;;29.15;7.55;;;;;;;13.24;100.00;99551.13;4818416;29;20055;-81
2021/10/20 00:45:49;;;;;;;30.40;8.38;;;;;;;13.20;100.00;99548.09;4804483;29;20048;-83
2021/10/20 00:48:15;;;;;;;30.65;8.98;;;;;;;13.28;100.00;99560.41;4789558;29;20039;-82
2021/10/20 00:50:42;;;;;;;28.40;8.95;;;;;;;13.25;100.00;99548.22;4802736;29;20148;-82
2021/10/20 00:53:08;;;;;;;38.67;10.55;;;;;;;13.20;100.00;99533.78;4788853;29;20057;-81
2021/10/20 00:55:34;;;;;;;40.92;12.10;;;;;;;13.19;100.00;99518.66;4819508;29;20031;-82
2021/10/20 00:58:00;;;;;;;44.90;12.98;;;;;;;13.34;100.00;99532.38;4818127;29;20027;-81
2021/10/20 01:00:25;;;;;;;50.22;14.23;;;;;;;13.34;100.00;99530.53;4801220;29;20036;-81
2021/10/20 01:02:51;;;;;;;55.60;14.07;;;;;;;13.30;100.00;99517.75;4817231;29;20068;-80
2021/10/20 01:05:17;;;;;;;54.97;15.30;;;;;;;13.36;100.00;99527.56;4816227;29;20107;-81
2021/10/20 01:07:42;;;;;;;51.75;16.08;;;;;;;13.19;100.00;99503.25;4786299;29;20038;-82
2021/10/20 01:10:09;;;;;;;55.22;16.67;;;;;;;13.32;100.00;99505.63;4818022;29;20030;-81
2021/10/20 01:12:36;;;;;;;60.03;17.08;;;;;;;13.38;100.00;99506.53;4818770;29;20054;-82
2021/10/20 01:15:16;;;;;;;63.25;17.67;;;;;;;13.34;100.00;99494.56;4801907;29;20035;-82
2021/10/20 01:17:42;;;;;;;72.72;19.85;;;;;;;13.40;100.00;99494.38;4802756;29;20023;-81
2021/10/20 01:20:09;;;;;;;65.07;20.23;;;;;;;13.42;100.00;99494.16;4785378;29;20045;-81
2021/10/20 01:22:35;;;;;;;73.90;20.58;;;;;;;13.47;100.00;99482.59;4806571;29;20023;-81
2021/10/20 01:25:01;;;;;;;81.13;21.75;;;;;;;13.39;100.00;99465.75;4772476;29;20106;-81
2021/10/20 01:27:27;;;;;;;77.15;23.50;;;;;;;13.44;100.00;99470.38;4840216;29;20040;-81
2021/10/20 01:29:53;;;;;;;86.13;24.73;;;;;;;13.47;100.00;99475.28;4836059;29;20038;-81
2021/10/20 01:32:19;;;;;;;83.97;23.80;;;;;;;13.46;100.00;99460.16;4800363;29;20063;-81
2021/10/20 01:34:44;;;;;;;90.25;26.52;;;;;;;13.53;100.00;99466.19;4816594;29;20031;-82
2021/10/20 01:37:11;;;;;;;82.57;25.85;;;;;;;13.60;100.00;99466.00;4814754;29;20089;-80
2021/10/20 01:39:37;;;;;;;92.97;26.75;;;;;;;13.59;100.00;99454.38;4800004;29;20065;-81
2021/10/20 01:42:02;;;;;;;98.43;27.85;;;;;;;13.55;100.00;99444.31;4815785;29;20035;-81
2021/10/20 01:44:28;;;;;;;98.93;28.63;;;;;;;13.57;100.00;99447.56;4815828;29;20047;-82
2021/10/20 01:46:54;;;;;;;94.82;26.88;;;;;;;13.63;100.00;99450.09;4801194;29;20074;-81
2021/10/20 01:49:19;;;;;;;106.57;27.40;;;;;;;13.58;100.00;99452.75;4799334;29;20029;-81
2021/10/20 01:51:45;;;;;;;87.53;25.23;;;;;;;13.45;100.00;99441.50;4787768;29;20058;-81
2021/10/20 01:54:13;;;;;;;88.93;24.80;;;;;;;13.44;100.00;99429.84;4817639;29;20072;-81
2021/10/20 01:56:39;;;;;;;94.78;24.13;;;;;;;13.51;100.00;99441.31;4801917;29;20031;-81
2021/10/20 01:59:04;;;;;;;82.15;24.63;;;;;;;13.45;100.00;99428.81;4805643;29;20049;-81
2021/10/20 02:01:30;;;;;;;105.40;25.42;;;;;;;13.52;100.00;99436.72;4794971;29;20046;-81
2021/10/20 02:03:55;;;;;;;80.32;25.35;;;;;;;13.49;100.00;99431.81;4805504;29;20035;-81
2021/10/20 02:06:21;;;;;;;102.53;26.60;;;;;;;13.51;100.00;99427.81;4782805;30;20035;-81
2021/10/20 02:08:47;;;;;;;87.20;26.38;;;;;;;13.52;100.00;99421.31;4767484;29;20031;-81
2021/10/20 02:11:13;;;;;;;102.53;29.25;;;;;;;13.46;100.00;99416.91;4815390;29;20051;-82
2021/10/20 02:13:40;;;;;;;113.05;30.67;;;;;;;13.52;100.00;99420.50;4781845;30;20039;-81
2021/10/20 02:16:05;;;;;;;93.05;28.15;;;;;;;13.53;100.00;99422.13;4809467;29;20124;-81
2021/10/20 02:18:31;;;;;;;95.13;27.83;;;;;;;13.55;100.00;99420.00;4782226;30;20122;-81
2021/10/20 02:20:57;;;;;;;101.68;27.38;;;;;;;13.55;100.00;99415.41;4807461;29;20033;-81
2021/10/20 02:23:23;;;;;;;94.93;27.08;;;;;;;13.46;100.00;99392.59;4801502;29;20027;-81
2021/10/20 02:25:49;;;;;;;79.28;26.05;;;;;;;12.98;100.00;99312.28;4816305;29;20058;-81
2021/10/20 02:28:15;;;;;;;71.75;23.75;;;;;;;13.43;100.00;99376.88;4800142;29;20118;-82
2021/10/20 02:30:41;;;;;;;67.53;22.15;;;;;;;13.37;100.00;99367.91;4818207;29;20514;-82
2021/10/20 02:33:08;;;;;;;62.80;21.05;;;;;;;13.47;100.00;99385.31;4817814;29;20034;-81
2021/10/20 02:35:33;;;;;;;70.93;24.58;;;;;;;13.46;100.00;99386.38;4819644;29;20054;-81
2021/10/20 02:37:59;;;;;;;85.53;24.92;;;;;;;13.42;100.00;99377.16;4784468;30;20046;-82
2021/10/20 02:40:25;;;;;;;83.80;25.73;;;;;;;13.46;100.00;99380.97;4785879;29;20462;-82
2021/10/20 02:42:51;;;;;;;84.50;26.58;;;;;;;13.43;100.00;99373.38;4802350;29;20038;-82
2021/10/20 02:45:16;;;;;;;82.53;25.90;;;;;;;13.44;100.00;99378.50;4801302;29;20385;-82
2021/10/20 02:47:43;;;;;;;92.70;27.25;;;;;;;13.40;100.00;99370.09;4801886;29;20409;-81
2021/10/20 02:50:09;;;;;;;88.45;27.30;;;;;;;13.38;100.00;99361.44;4802119;29;20122;-82
2021/10/20 02:52:35;;;;;;;92.72;28.40;;;;;;;13.22;100.00;99335.28;4806306;29;20047;-82
2021/10/20 02:55:01;;;;;;;96.15;28.00;;;;;;;13.34;100.00;99352.22;4804629;29;20125;-81
2021/10/20 02:57:26;;;;;;;83.15;25.70;;;;;;;13.35;100.00;99361.13;4807213;29;20084;-82
2021/10/20 02:59:53;;;;;;;77.35;24.20;;;;;;;13.27;100.00;99334.56;4825373;29;20030;-82
2021/10/20 03:02:18;;;;;;;63.78;22.63;;;;;;;13.30;100.00;99347.56;4792434;29;20065;-82
2021/10/20 03:04:44;;;;;;;76.78;24.08;;;;;;;13.32;100.00;99343.53;4808249;29;20030;-82
2021/10/20 03:07:10;;;;;;;69.00;22.60;;;;;;;13.31;100.00;99338.38;4825082;29;20027;-83
2021/10/20 03:09:35;;;;;;;64.35;22.00;;;;;;;13.28;100.00;99337.00;4811032;29;20065;-83
2021/10/20 03:12:01;;;;;;;66.50;22.55;;;;;;;13.28;100.00;99338.91;4821606;29;20109;-81
2021/10/20 03:14:27;;;;;;;63.03;22.60;;;;;;;13.27;100.00;99334.56;4815144;29;20023;-83
2021/10/20 03:16:53;;;;;;;58.60;21.33;;;;;;;13.26;100.00;99328.34;4844364;29;20033;-83
2021/10/20 03:19:18;;;;;;;50.17;18.90;;;;;;;13.17;100.00;99317.13;4818082;29;20011;-83
2021/10/20 03:21:44;;;;;;;45.03;17.70;;;;;;;13.29;100.00;99318.91;4812225;29;20035;-83
2021/10/20 03:24:09;;;;;;;37.72;15.73;;;;;;;13.27;100.00;99318.34;4796845;29;20027;-83
2021/10/20 03:26:35;;;;;;;40.67;17.52;;;;;;;13.35;100.00;99315.22;4812118;29;20113;-83
2021/10/20 03:29:01;;;;;;;46.35;18.45;;;;;;;13.38;100.00;99312.81;4827618;29;20031;-83
2021/10/20 03:31:26;;;;;;;45.55;18.80;;;;;;;13.42;100.00;99306.91;4774856;30;20039;-82
2021/10/20 03:33:51;;;;;;;39.42;16.35;;;;;;;13.31;100.00;99297.84;4795693;30;20035;-83
2021/10/20 03:36:17;;;;;;;36.50;14.98;;;;;;;13.45;100.00;99304.50;4802394;29;20034;-84
2021/10/20 03:38:42;;;;;;;38.92;15.32;;;;;;;13.44;100.00;99297.44;4798567;29;20038;-83
2021/10/20 03:41:08;;;;;;;33.42;15.00;;;;;;;13.51;100.00;99295.38;4829081;29;20038;-83
2021/10/20 03:43:33;;;;;;;38.92;15.65;;;;;;;13.56;100.00;99289.19;4805312;29;20062;-82
2021/10/20 03:46:00;;;;;;;32.05;15.07;;;;;;;13.54;100.00;99284.06;4844974;29;20031;-84
2021/10/20 03:48:25;;;;;;;32.28;14.73;;;;;;;13.49;100.00;99270.50;4822310;29;20031;-83
2021/10/20 03:50:51;;;;;;;36.78;15.05;;;;;;;13.57;100.00;99282.72;4809760;29;20088;-82
2021/10/20 03:53:16;;;;;;;40.13;17.17;;;;;;;13.55;100.00;99277.59;4809013;29;20350;-83
2021/10/20 03:55:42;;;;;;;40.90;17.33;;;;;;;13.49;100.00;99261.56;4799588;29;20050;-82
2021/10/20 03:58:08;;;;;;;40.00;18.05;;;;;;;13.44;100.00;99254.22;4825010;29;20030;-82
2021/10/20 04:00:34;;;;;;;46.67;18.73;;;;;;;13.48;100.00;99263.47;4789946;29;20038;-83
2021/10/20 04:02:59;;;;;;;42.20;18.10;;;;;;;13.46;100.00;99243.97;4807851;29;20006;-80
2021/10/20 04:05:24;;;;;;;49.40;20.65;;;;;;;13.39;100.00;99243.38;4809591;29;20106;-82
2021/10/20 04:07:51;;;;;;;46.50;19.73;;;;;;;13.44;100.00;99239.91;4808734;29;20053;-83
2021/10/20 04:10:22;;;;;;;40.70;19.08;;;;;;;13.31;100.00;99233.03;4788938;29;20067;-83
2021/10/20 04:12:48;;;;;;;48.58;18.90;;;;;;;13.40;100.00;99245.81;4790489;29;20041;-83
2021/10/20 04:15:16;;;;;;;36.00;16.33;;;;;;;13.37;100.00;99238.22;4812665;29;20133;-84
2021/10/20 04:17:42;;;;;;;39.92;17.60;;;;;;;13.43;100.00;99235.56;4815716;29;20035;-83
2021/10/20 04:20:10;;;;;;;39.20;17.13;;;;;;;13.40;100.00;99226.09;4829100;29;20013;-84
2021/10/20 04:22:36;;;;;;;41.42;18.08;;;;;;;13.42;100.00;99232.06;4831047;29;20019;-84
2021/10/20 04:25:03;;;;;;;41.80;18.02;;;;;;;12.91;100.00;99153.19;5453206;24;21128;-80
2021/10/20 04:27:29;;;;;;;36.55;17.38;;;;;;;12.72;100.00;99131.16;4791630;30;20027;-85
2021/10/20 04:29:57;;;;;;;43.00;18.60;;;;;;;13.32;100.00;99232.78;4793800;29;20045;-85
2021/10/20 04:32:22;;;;;;;34.60;17.55;;;;;;;12.90;100.00;99157.78;4900694;24;20038;-85
2021/10/20 04:34:48;;;;;;;38.35;17.02;;;;;;;13.15;100.00;99189.66;4824085;29;20077;-84
2021/10/20 04:59:33;;;;;;;25.52;12.77;;;;;;;12.78;100.00;99094.22;5740651;24;20119;-80
2021/10/20 06:37:16;;;;;;;32.17;14.05;;;;;;;12.89;100.00;98979.91;4777292;30;20071;-85
2021/10/20 06:39:42;;;;;;;39.40;15.00;;;;;;;12.79;100.00;98964.44;4764250;30;20110;-83
2021/10/20 06:44:42;;;;;;;40.53;16.02;;;;;;;12.81;100.00;98956.06;4864058;24;20047;-84
2021/10/20 06:47:08;;;;;;;41.67;16.67;;;;;;;12.98;100.00;98980.22;4780480;30;20055;-84
2021/10/20 06:52:10;;;;;;;32.65;13.13;;;;;;;12.85;100.00;98970.69;4832113;24;20045;-85
2021/10/20 07:12:30;;;;;;;32.15;12.00;;;;;;;13.49;100.00;99040.81;5839187;24;20022;31
2021/10/20 07:14:56;;;;;;;35.33;13.07;;;;;;;12.99;100.00;98957.56;4776432;30;20257;-85
2021/10/20 07:19:57;;;;;;;37.47;14.10;;;;;;;13.49;100.00;99046.22;5673171;24;20054;-84
2021/10/20 07:45:39;;;;;;;39.47;13.95;;;;;;;12.86;100.00;98934.53;4986136;24;20068;-84
2021/10/20 07:48:05;;;;;;;41.60;12.48;;;;;;;12.89;100.00;98945.59;4771351;30;20039;-82
2021/10/20 07:50:32;;;;;;;36.65;13.02;;;;;;;13.48;100.00;99035.69;4774396;30;20016;-84
2021/10/20 07:52:58;;;;;;;38.28;12.93;;;;;;;13.11;100.00;98968.94;4771270;30;20095;-83
2021/10/20 07:55:24;;;;;;;42.83;12.90;;;;;;;12.85;100.00;98931.00;4784294;30;20024;-85
2021/10/20 08:03:02;;;;;;;41.53;12.63;;;;;;;13.37;100.00;99002.38;5543596;24;20047;-82
2021/10/20 08:05:27;;;;;;;50.85;13.77;;;;;;;13.11;100.00;98945.50;4792155;30;20031;-84
2021/10/20 08:07:53;;;;;;;45.13;14.35;;;;;;;13.02;100.00;98919.25;4804568;29;20036;-85
2021/10/20 08:51:52;;;;;;;65.70;18.67;;;;;;;13.58;100.00;98895.22;5835233;24;20333;31
2021/10/20 08:57:21;;;;;;;70.05;19.60;;;;;;;13.56;100.00;98905.47;5608033;24;20056;-84
2021/10/20 08:59:46;;;;;;;73.85;19.58;;;;;;;13.06;100.00;98840.13;4801720;29;20060;-84
2021/10/20 09:36:06;;;;;;;60.90;17.13;;;;;;;12.66;100.00;98819.16;4789735;30;20120;-82
2021/10/20 09:38:35;;;;;;;;;;;;;;;13.27;100.00;98916.69;4784914;30;20948;-82
2021/10/20 09:41:13;;;;;;;76.55;18.00;;;;;;;12.58;100.00;98803.44;4789327;30;19902;-83
2021/10/20 09:43:47;;;;;;;64.18;18.75;;;;;;;13.04;100.00;98869.28;4774781;30;20016;-83
2021/10/20 09:46:13;;;;;;;69.45;17.15;;;;;;;12.94;100.00;98836.84;4766990;30;20019;-83
2021/10/20 09:48:40;;;;;;;57.42;16.67;;;;;;;13.33;100.00;98910.22;4761843;30;20040;-84
2021/10/20 09:51:16;;;;;;;53.65;16.73;;;;;;;12.63;100.00;98790.00;4773019;30;20031;-83
2021/10/20 09:53:52;;;;;;;61.00;16.52;;;;;;;12.96;100.00;98828.50;4788799;30;20064;-84
2021/10/20 09:56:36;;;;;;;72.15;16.85;;;;;;;12.69;100.00;98778.16;4776497;30;20028;-83
2021/10/20 09:59:07;;;;;;;60.03;17.00;;;;;;;12.93;100.00;98806.34;4774964;30;20050;-82
2021/10/20 10:01:40;;;;;;;46.67;15.63;;;;;;;12.92;100.00;98809.31;4773362;30;20073;-81
2021/10/20 10:04:14;;;;;;;60.27;16.50;;;;;;;12.72;100.00;98769.53;4774407;30;20058;-82
2021/10/20 10:06:44;;;;;;;63.65;17.05;;;;;;;12.88;100.00;98790.13;4776282;30;20025;-84
2021/10/20 10:19:40;;;;;;;63.03;16.25;;;;;;;12.84;100.00;98745.03;5506901;24;20057;-83
2021/10/20 10:35:06;;;;;;;56.85;16.50;;;;;;;12.66;100.00;98700.44;5670558;24;20007;-82
2021/10/20 11:03:23;;;;;;;57.00;16.77;;;;;;;12.92;100.00;98672.44;4758795;30;20051;-81
2021/10/20 11:05:54;;;;;;;57.65;15.82;;;;;;;13.24;100.00;98717.34;4742870;30;20024;-83
2021/10/20 11:08:20;;;;;;;50.95;15.70;;;;;;;13.03;100.00;98688.66;4762654;30;20047;-83
2021/10/20 11:10:47;;;;;;;53.53;16.20;;;;;;;12.88;100.00;98663.28;4743625;30;20032;-83
2021/10/20 11:13:13;;;;;;;51.35;15.25;;;;;;;12.92;100.00;98675.16;4740265;30;20503;-82
2021/10/20 11:15:42;;;;;;;48.25;15.57;;;;;;;13.24;100.00;98722.75;4758145;30;20119;-83
2021/10/20 11:18:08;;;;;;;54.22;16.15;;;;;;;12.89;100.00;98670.28;4750371;30;20027;-82
2021/10/20 11:20:37;;;;;;;61.20;16.88;;;;;;;12.74;100.00;98645.94;4754776;30;20115;-81
2021/10/20 11:23:08;;;;;;;50.85;15.63;;;;;;;13.26;100.00;98727.91;4758418;30;20028;-82
2021/10/20 11:25:39;;;;;;;50.78;16.10;;;;;;;12.98;100.00;98681.38;4761401;30;20037;-81
2021/10/20 11:28:06;;;;;;;50.80;15.50;;;;;;;12.74;100.00;98632.44;4729532;30;20068;-82
2021/10/20 11:30:35;;;;;;;47.72;14.27;;;;;;;13.27;100.00;98707.91;4728154;30;20096;-83
2021/10/20 11:33:08;;;;;;;54.58;15.63;;;;;;;13.35;100.00;98721.69;4748013;30;20053;-84
2021/10/20 11:35:34;;;;;;;49.05;15.07;;;;;;;12.56;100.00;98593.28;4746107;30;20060;-83
2021/10/20 11:38:08;;;;;;;47.03;15.18;;;;;;;13.01;100.00;98659.22;4757427;30;20044;-82
2021/10/20 11:40:34;;;;;;;;;;;;;;;13.26;100.00;98698.19;4742230;30;20033;-83
2021/10/20 11:43:00;;;;;;;49.03;14.70;;;;;;;12.66;100.00;98609.50;4759946;30;19933;-83
2021/10/20 11:45:31;;;;;;;48.33;15.50;;;;;;;12.60;100.00;98602.47;4740910;30;20033;-83
2021/10/20 11:48:05;;;;;;;43.75;15.13;;;;;;;13.31;100.00;98706.28;4754854;30;20032;-81
2021/10/20 11:50:32;;;;;;;46.90;14.68;;;;;;;12.75;100.00;98608.97;4738667;30;20190;-81
2021/10/20 11:52:59;;;;;;;50.03;14.75;;;;;;;12.74;100.00;98600.06;4755567;30;20031;-82
2021/10/20 11:55:25;;;;;;;45.42;13.13;;;;;;;12.76;100.00;98595.22;4748589;30;20034;-81
2021/10/20 11:57:51;;;;;;;44.03;14.15;;;;;;;12.69;100.00;98586.59;4751325;30;20096;-81
2021/10/20 12:00:16;;;;;;;46.72;16.08;;;;;;;13.33;100.00;98671.72;4750454;30;20031;-82
2021/10/20 12:02:42;;;;;;;44.60;13.85;;;;;;;12.65;100.00;98582.81;4741683;30;20095;-82
2021/10/20 12:05:08;;;;;;;37.63;13.18;;;;;;;12.79;100.00;98600.09;4741430;30;20025;-82
2021/10/20 12:07:34;;;;;;;46.75;13.38;;;;;;;12.75;100.00;98598.16;4744670;30;20123;-81
2021/10/20 12:10:02;;;;;;;44.08;13.07;;;;;;;12.77;100.00;98599.53;4737923;30;20486;-82
2021/10/20 12:12:30;;;;;;;42.33;12.82;;;;;;;13.07;100.00;98636.56;4754477;30;20036;-81
2021/10/20 12:14:58;;;;;;;40.95;13.13;;;;;;;12.78;100.00;98590.38;4751402;30;20028;-82
2021/10/20 12:17:25;;;;;;;42.38;12.63;;;;;;;12.74;100.00;98583.06;4754554;30;20106;-81
2021/10/20 12:19:56;;;;;;;46.00;13.00;;;;;;;12.70;100.00;98575.50;4739154;30;20024;-82
2021/10/20 12:22:21;;;;;;;36.97;12.18;;;;;;;13.10;100.00;98619.81;4759422;30;20029;-82
2021/10/20 12:24:49;;;;;;;46.75;13.18;;;;;;;12.91;100.00;98583.63;4757489;30;20016;-82
2021/10/20 12:27:16;;;;;;;41.70;12.73;;;;;;;12.77;100.00;98563.66;4760283;30;20124;-80
2021/10/20 12:29:53;;;;;;;51.08;13.57;;;;;;;13.09;100.00;98595.81;4757502;30;20048;-80
2021/10/20 12:32:27;;;;;;;50.13;12.70;;;;;;;12.73;100.00;98540.97;4756822;30;20043;-81
2021/10/20 12:35:20;;;;;;;39.92;12.32;;;;;;;12.78;100.00;98563.41;4759165;30;20063;-81
2021/10/20 12:37:48;;;;;;;53.13;11.73;;;;;;;13.52;100.00;98650.38;4761907;30;20070;-80
2021/10/20 12:40:23;;;;;;;39.47;10.80;;;;;;;13.48;100.00;98646.63;4758592;30;20032;-80
2021/10/20 12:42:52;;;;;;;41.38;11.40;;;;;;;13.52;100.00;98656.59;4748841;30;20088;-81
2021/10/20 12:45:20;;;;;;;38.03;10.68;;;;;;;13.55;100.00;98664.16;4745048;30;20127;-81
2021/10/20 12:47:49;;;;;;;36.80;9.38;;;;;;;13.55;100.00;98668.75;4738731;30;20064;-81
2021/10/20 12:50:17;;;;;;;39.60;9.35;;;;;;;13.56;100.00;98676.59;4758948;30;20127;-81
2021/10/20 12:52:43;;;;;;;30.50;8.38;;;;;;;13.57;100.00;98680.09;4760200;30;20027;-82
2021/10/20 12:55:11;;;;;;;29.35;7.72;;;;;;;13.57;100.00;98680.91;4721612;30;20041;-80
2021/10/20 12:57:39;;;;;;;33.88;8.73;;;;;;;13.54;100.00;98670.66;4743437;30;20547;-81
2021/10/20 13:00:12;;;;;;;39.25;9.27;;;;;;;13.57;100.00;98670.09;4729942;30;20059;-79
2021/10/20 13:02:38;;;;;;;37.13;8.93;;;;;;;13.61;100.00;98687.41;4736879;30;20060;-80
2021/10/20 13:05:06;;;;;;;32.70;8.63;;;;;;;13.66;100.00;98678.47;4731170;30;20112;-78
2021/10/20 13:07:32;;;;;;;32.25;8.10;;;;;;;13.66;100.00;98664.16;4754031;30;20041;-83
2021/10/20 13:09:57;;;;;;;36.40;8.85;;;;;;;13.73;100.00;98667.38;4748861;30;20043;-81
2021/10/20 13:12:24;;;;;;;33.55;8.10;;;;;;;13.74;100.00;98659.03;4766356;30;20059;-83
2021/10/20 13:14:49;;;;;;;35.90;8.88;;;;;;;13.54;100.00;98629.28;4807026;24;20119;-82
2021/10/20 13:17:15;;;;;;;36.42;8.10;;;;;;;13.16;100.00;98570.13;4771590;30;20185;-82
2021/10/20 13:19:41;;;;;;;32.42;7.45;;;;;;;13.10;100.00;98565.81;4787755;30;20044;-81
2021/10/20 13:22:06;;;;;;;27.08;7.00;;;;;;;13.25;100.00;98591.25;4941740;24;20068;-81
2021/10/20 13:24:33;;;;;;;35.50;7.90;;;;;;;13.36;100.00;98627.97;4754399;30;20031;-84
2021/10/20 13:26:59;;;;;;;34.25;7.15;;;;;;;13.14;100.00;98604.72;4884496;24;20060;-83
2021/10/20 13:29:24;;;;;;;31.23;6.95;;;;;;;13.27;100.00;98633.09;4759147;30;20070;-83
2021/10/20 13:31:50;;;;;;;34.22;6.97;;;;;;;13.04;100.00;98604.69;4759982;30;20024;-85
2021/10/20 13:34:16;;;;;;;42.30;7.22;;;;;;;13.47;100.00;98683.59;4775066;30;20031;-83
2021/10/20 13:41:53;;;;;;;31.55;6.82;;;;;;;12.54;100.00;98554.97;5609392;24;20063;-83
2021/10/20 15:37:31;;;;;;;33.80;5.60;;;;;;;12.43;100.00;98588.41;5810426;24;20034;31
2021/10/20 16:16:34;;;;;;;18.30;3.70;;;;;;;11.33;100.00;98480.66;5797352;24;20707;-76
2021/10/20 17:00:24;;;;;;;19.77;3.00;;;;;;;10.39;100.00;98402.25;5267002;24;20043;-86
2021/10/20 17:36:27;;;;;;;17.65;2.90;;;;;;;10.42;100.00;98385.63;5648739;24;20047;-84
2021/10/20 17:54:23;;;;;;;19.55;3.72;;;;;;;10.76;100.00;98442.63;5642804;24;20050;-82
2021/10/20 18:43:22;;;;;;;20.27;3.45;;;;;;;11.48;100.00;98531.91;5790019;24;20318;-79
2021/10/20 18:56:09;;;;;;;20.83;2.80;;;;;;;10.18;100.00;98352.88;5583047;24;20043;-84
2021/10/20 18:58:34;;;;;;;22.15;3.47;;;;;;;11.25;100.00;98515.06;4813999;29;20151;-83
2021/10/20 19:01:00;;;;;;;28.52;3.70;;;;;;;11.24;100.00;98518.84;4807451;30;20030;-83
2021/10/20 19:03:26;;;;;;;18.60;3.42;;;;;;;10.31;100.00;98359.72;4792416;30;20083;-80
2021/10/20 19:16:12;;;;;;;19.23;3.17;;;;;;;11.17;100.00;98494.03;5415738;24;20047;-83
2021/10/20 19:18:47;;;;;;;23.60;3.47;;;;;;;10.34;100.00;98376.16;5527893;24;20036;-82
2021/10/20 19:28:58;;;;;;;19.33;3.70;;;;;;;10.12;100.00;98341.28;4873346;24;20243;-85
2021/10/20 19:31:23;;;;;;;20.88;2.95;;;;;;;11.12;100.00;98480.53;4839949;29;20046;-84
